createdAt,value
2022-09-07T00:02:20.856Z,98392.25
2022-09-07T00:04:47.594Z,98384.91
2022-09-07T00:07:14.068Z,98389.16
2022-09-07T00:09:40.699Z,98388.31
2022-09-07T00:12:07.371Z,98389.38
2022-09-07T00:14:34.769Z,98387.53
2022-09-07T00:17:01.242Z,98383.06
2022-09-07T00:19:27.759Z,98384.91
2022-09-07T00:21:54.239Z,98394.47
2022-09-07T00:24:20.787Z,98403.94
2022-09-07T00:26:47.326Z,98402.59
2022-09-07T00:29:13.978Z,98418.69
2022-09-07T00:31:40.614Z,98411.81
2022-09-07T00:34:07.265Z,98408.91
2022-09-07T00:36:33.916Z,98397.84
2022-09-07T00:39:00.993Z,98403.69
2022-09-07T00:41:27.727Z,98406.56
2022-09-07T00:43:57.096Z,98415.81
2022-09-07T00:46:26.750Z,98419.75
2022-09-07T00:49:08.033Z,98418.72
2022-09-07T00:51:46.201Z,98414.50
2022-09-07T00:54:24.237Z,98413.16
2022-09-07T00:56:54.796Z,98414.78
2022-09-07T00:59:29.146Z,98412.13
2022-09-07T01:01:55.931Z,98411.63
2022-09-07T01:04:23.689Z,98411.09
2022-09-07T01:06:50.758Z,98412.94
2022-09-07T01:09:22.191Z,98408.22
2022-09-07T01:11:51.151Z,98403.19
2022-09-07T01:14:28.915Z,98400.88
2022-09-07T01:17:15.392Z,98392.72
2022-09-07T01:20:17.739Z,98406.16
2022-09-07T01:22:53.321Z,98404.31
2022-09-07T01:25:43.626Z,98401.97
2022-09-07T01:28:12.205Z,98406.72
2022-09-07T01:30:42.171Z,98402.50
2022-09-07T01:33:34.273Z,98403.56
2022-09-07T01:36:35.707Z,98411.19
2022-09-07T01:39:04.490Z,98411.75
2022-09-07T01:41:39.071Z,98402.00
2022-09-07T01:44:23.622Z,98394.13
2022-09-07T01:46:59.017Z,98395.94
2022-09-07T01:49:43.357Z,98393.06
2022-09-07T01:52:32.112Z,98394.91
2022-09-07T01:55:04.411Z,98394.91
2022-09-07T01:57:44.526Z,98387.28
2022-09-07T02:00:15.550Z,98391.22
2022-09-07T02:02:48.840Z,98381.97
2022-09-07T02:05:23.840Z,98384.38
2022-09-07T02:08:13.424Z,98382.75
2022-09-07T02:10:45.327Z,98381.72
2022-09-07T02:13:23.662Z,98381.72
2022-09-07T02:16:01.899Z,98381.19
2022-09-07T02:18:36.391Z,98380.91
2022-09-07T02:21:08.533Z,98384.63
2022-09-07T02:23:50.961Z,98383.56
2022-09-07T02:26:21.856Z,98400.72
2022-09-07T02:28:48.842Z,98408.38
2022-09-07T02:31:18.349Z,98403.06
2022-09-07T02:33:45.107Z,98394.38
2022-09-07T02:36:16.219Z,98394.91
2022-09-07T02:38:44.431Z,98405.97
2022-09-07T02:41:49.650Z,98411.47
2022-09-07T02:44:21.271Z,98402.03
2022-09-07T02:47:07.305Z,98406.75
2022-09-07T02:49:55.366Z,98410.72
2022-09-07T02:52:31.171Z,98413.59
2022-09-07T02:55:24.427Z,98428.13
2022-09-07T02:58:03.034Z,98420.19
2022-09-07T03:00:34.109Z,98426.78
2022-09-07T03:03:15.617Z,98421.50
2022-09-07T03:06:04.716Z,98418.88
2022-09-07T03:09:05.517Z,98417.00
2022-09-07T03:11:32.389Z,98413.59
2022-09-07T03:14:12.106Z,98403.31
2022-09-07T03:16:41.397Z,98405.16
2022-09-07T03:19:11.519Z,98403.31
2022-09-07T03:21:38.164Z,98417.78
2022-09-07T03:24:05.336Z,98417.00
2022-09-07T03:26:31.945Z,98412.81
2022-09-07T03:28:58.926Z,98406.22
2022-09-07T03:31:25.976Z,98399.88
2022-09-07T03:33:52.565Z,98393.31
2022-09-07T03:36:19.105Z,98388.28
2022-09-07T03:38:45.640Z,98383.56
2022-09-07T03:41:14.708Z,98391.72
2022-09-07T03:43:41.404Z,98397.25
2022-09-07T03:46:10.518Z,98402.50
2022-09-07T03:48:41.503Z,98404.88
2022-09-07T03:51:10.416Z,98395.38
2022-09-07T03:53:40.128Z,98397.22
2022-09-07T03:56:10.556Z,98391.97
2022-09-07T03:58:37.612Z,98391.13
2022-09-07T04:01:09.176Z,98379.56
2022-09-07T04:03:36.258Z,98375.34
2022-09-07T04:06:04.235Z,98377.19
2022-09-07T04:08:33.003Z,98382.44
2022-09-07T04:11:01.600Z,98385.59
2022-09-07T04:13:29.595Z,98395.09
2022-09-07T04:15:56.679Z,98388.50
2022-09-07T04:18:26.091Z,98388.22
2022-09-07T04:20:52.809Z,98391.91
2022-09-07T04:23:20.137Z,98390.88
2022-09-07T04:25:51.616Z,98405.34
2022-09-07T04:28:19.872Z,98423.25
2022-09-07T04:30:47.517Z,98425.66
2022-09-07T04:33:14.713Z,98417.25
2022-09-07T04:35:42.601Z,98421.72
2022-09-07T04:38:13.745Z,98425.16
2022-09-07T04:40:43.876Z,98423.56
2022-09-07T04:43:13.029Z,98428.31
2022-09-07T04:45:40.248Z,98421.75
2022-09-07T04:48:07.394Z,98433.84
2022-09-07T04:50:34.108Z,98431.50
2022-09-07T04:53:00.836Z,98433.59
2022-09-07T04:55:27.569Z,98425.16
2022-09-07T04:57:54.230Z,98422.78
2022-09-07T05:00:20.779Z,98431.47
2022-09-07T05:02:47.544Z,98426.75
2022-09-07T05:05:14.452Z,98417.78
2022-09-07T05:07:41.178Z,98427.00
2022-09-07T05:10:08.457Z,98434.38
2022-09-07T05:12:37.257Z,98439.41
2022-09-07T05:15:05.109Z,98442.28
2022-09-07T05:17:31.785Z,98440.97
2022-09-07T05:19:58.508Z,98440.44
2022-09-07T05:22:29.164Z,98431.00
2022-09-07T05:24:55.955Z,98426.78
2022-09-07T05:27:22.841Z,98418.09
2022-09-07T05:30:07.046Z,98424.13
2022-09-07T05:32:33.880Z,98434.16
2022-09-07T05:35:00.567Z,98432.63
2022-09-07T05:37:29.750Z,98424.19
2022-09-07T05:39:56.974Z,98427.84
2022-09-07T05:42:23.963Z,98411.78
2022-09-07T05:44:50.606Z,98422.03
2022-09-07T05:47:17.953Z,98424.97
2022-09-07T05:49:51.032Z,98426.78
2022-09-07T05:52:19.579Z,98418.63
2022-09-07T05:54:47.336Z,98413.06
2022-09-07T05:57:15.531Z,98414.66
2022-09-07T05:59:42.240Z,98405.94
2022-09-07T06:02:13.706Z,98410.13
2022-09-07T06:04:40.569Z,98416.69
2022-09-07T06:07:23.781Z,98420.88
2022-09-07T06:12:37.201Z,98410.00
2022-09-07T06:15:05.391Z,98409.50
2022-09-07T06:17:32.255Z,98410.28
2022-09-07T06:20:00.387Z,98413.44
2022-09-07T06:22:30.756Z,98415.78
2022-09-07T06:24:58.201Z,98429.75
2022-09-07T06:27:26.956Z,98416.78
2022-09-07T06:29:59.140Z,98417.00
2022-09-07T06:32:44.561Z,98419.13
2022-09-07T06:35:12.477Z,98418.03
2022-09-07T06:37:44.319Z,98420.66
2022-09-07T06:40:14.492Z,98426.69
2022-09-07T06:42:41.076Z,98416.03
2022-09-07T06:45:10.109Z,98415.16
2022-09-07T06:47:38.367Z,98419.84
2022-09-07T06:50:05.220Z,98411.91
2022-09-07T06:55:21.236Z,98421.13
2022-09-07T06:57:54.486Z,98416.31
2022-09-07T07:00:21.387Z,98412.59
2022-09-07T07:02:48.148Z,98415.25
2022-09-07T07:05:17.798Z,98419.19
2022-09-07T07:07:44.533Z,98417.81
2022-09-07T07:10:23.719Z,98426.78
2022-09-07T07:12:53.054Z,98426.44
2022-09-07T07:15:22.062Z,98418.53
2022-09-07T07:17:58.100Z,98420.41
2022-09-07T07:20:25.974Z,98424.41
2022-09-07T07:22:55.707Z,98417.59
2022-09-07T07:25:23.005Z,98415.78
2022-09-07T07:27:52.741Z,98419.13
2022-09-07T07:30:19.660Z,98417.78
2022-09-07T07:32:47.059Z,98414.09
2022-09-07T07:35:14.295Z,98420.97
2022-09-07T07:37:44.113Z,98423.88
2022-09-07T07:40:24.416Z,98430.69
2022-09-07T07:42:53.188Z,98430.75
2022-09-07T07:48:14.531Z,98447.91
2022-09-07T07:50:43.748Z,98443.34
2022-09-07T07:56:03.271Z,98441.31
2022-09-07T07:58:31.793Z,98440.41
2022-09-07T08:01:08.461Z,98444.91
2022-09-07T08:03:38.263Z,98447.19
2022-09-07T08:06:10.137Z,98459.97
2022-09-07T08:08:41.051Z,98465.78
2022-09-07T08:11:11.039Z,98452.88
2022-09-07T08:13:46.978Z,98465.56
2022-09-07T08:16:13.822Z,98462.44
2022-09-07T08:18:41.029Z,98458.22
2022-09-07T08:21:12.972Z,98455.06
2022-09-07T08:23:40.255Z,98453.91
2022-09-07T08:26:08.026Z,98459.91
2022-09-07T08:28:38.252Z,98467.06
2022-09-07T08:31:07.280Z,98460.72
2022-09-07T08:33:38.322Z,98464.97
2022-09-07T08:36:08.807Z,98470.44
2022-09-07T08:38:36.643Z,98477.28
2022-09-07T08:41:26.636Z,98477.03
2022-09-07T08:43:57.192Z,98470.72
2022-09-07T08:46:47.685Z,98467.63
2022-09-07T08:49:36.831Z,98469.50
2022-09-07T08:52:26.082Z,98471.69
2022-09-07T08:55:12.082Z,98478.59
2022-09-07T08:57:44.173Z,98469.03
2022-09-07T09:00:16.670Z,98471.63
2022-09-07T09:02:46.445Z,98474.63
2022-09-07T09:05:50.228Z,98470.06
2022-09-07T09:09:05.026Z,98481.50
2022-09-07T09:11:53.420Z,98474.13
2022-09-07T09:14:57.118Z,98469.72
2022-09-07T09:17:35.659Z,98463.78
2022-09-07T09:20:20.814Z,98460.22
2022-09-07T09:22:50.436Z,98462.66
2022-09-07T09:25:21.369Z,98461.34
2022-09-07T09:27:49.400Z,98452.72
2022-09-07T09:30:21.746Z,98447.38
2022-09-07T09:33:14.193Z,98449.94
2022-09-07T09:35:45.433Z,98446.63
2022-09-07T09:38:29.262Z,98448.69
2022-09-07T09:40:58.083Z,98438.78
2022-09-07T09:43:30.373Z,98436.91
2022-09-07T09:46:13.658Z,98438.41
2022-09-07T09:48:42.879Z,98433.69
2022-09-07T09:54:19.605Z,98438.41
2022-09-07T09:56:50.066Z,98433.19
2022-09-07T10:05:37.374Z,98426.94
2022-09-07T10:08:17.895Z,98429.47
2022-09-07T10:10:55.533Z,98432.41
2022-09-07T10:13:36.882Z,98436.28
2022-09-07T10:16:06.587Z,98432.50
2022-09-07T10:18:39.920Z,98434.22
2022-09-07T10:21:27.866Z,98429.19
2022-09-07T10:24:12.633Z,98429.44
2022-09-07T10:26:40.483Z,98429.72
2022-09-07T10:29:15.232Z,98424.66
2022-09-07T10:32:00.993Z,98403.16
2022-09-07T10:34:27.594Z,98413.25
2022-09-07T10:37:09.574Z,98416.47
2022-09-07T10:39:42.951Z,98415.03
2022-09-07T10:42:09.766Z,98404.88
2022-09-07T10:45:05.797Z,98408.31
2022-09-07T10:48:09.962Z,98409.97
2022-09-07T10:50:44.679Z,98401.22
2022-09-07T10:53:47.643Z,98395.59
2022-09-07T10:56:52.659Z,98386.16
2022-09-07T10:59:22.101Z,98384.50
2022-09-07T11:01:58.770Z,98389.38
2022-09-07T11:04:36.934Z,98381.91
2022-09-07T11:07:42.370Z,98381.69
2022-09-07T11:10:50.625Z,98384.91
2022-09-07T11:13:22.931Z,98381.34
2022-09-07T11:15:55.317Z,98376.91
2022-09-07T11:18:35.306Z,98368.94
2022-09-07T11:21:06.491Z,98367.34
2022-09-07T11:23:58.099Z,98369.50
2022-09-07T11:26:53.827Z,98366.81
2022-09-07T11:29:35.555Z,98371.75
2022-09-07T11:32:18.116Z,98361.31
2022-09-07T11:34:59.020Z,98361.22
2022-09-07T11:37:30.897Z,98354.06
2022-09-07T11:40:18.177Z,98347.84
2022-09-07T11:42:59.650Z,98349.53
2022-09-07T11:45:40.283Z,98345.94
2022-09-07T11:48:19.876Z,98355.00
2022-09-07T11:50:54.238Z,98354.91
2022-09-07T11:53:39.345Z,98355.69
2022-09-07T11:56:36.283Z,98347.09
2022-09-07T11:59:26.590Z,98338.50
2022-09-07T12:02:55.254Z,98333.31
2022-09-07T12:05:54.146Z,98322.78
2022-09-07T12:08:43.726Z,98333.78
2022-09-07T12:11:45.140Z,98319.72
2022-09-07T12:14:18.045Z,98319.88
2022-09-07T12:16:54.749Z,98320.84
2022-09-07T12:19:26.603Z,98317.78
2022-09-07T12:21:53.032Z,98317.75
2022-09-07T12:24:46.812Z,98317.53
2022-09-07T12:27:22.536Z,98311.78
2022-09-07T12:30:10.374Z,98310.91
2022-09-07T12:32:54.848Z,98307.44
2022-09-07T12:35:31.939Z,98309.53
2022-09-07T12:38:24.247Z,98311.25
2022-09-07T12:41:04.000Z,98296.88
2022-09-07T12:43:31.703Z,98298.22
2022-09-07T12:46:00.829Z,98299.59
2022-09-07T12:48:50.153Z,98301.22
2022-09-07T12:54:45.521Z,98287.00
2022-09-07T12:57:41.212Z,98286.91
2022-09-07T13:00:35.907Z,98284.97
2022-09-07T13:03:55.100Z,98282.16
2022-09-07T13:09:31.541Z,98286.66
2022-09-07T13:15:33.224Z,98283.56
2022-09-07T13:18:00.732Z,98270.16
2022-09-07T13:20:34.795Z,98278.13
2022-09-07T13:23:26.293Z,98278.88
2022-09-07T13:25:55.332Z,98275.13
2022-09-07T13:28:49.183Z,98271.16
2022-09-07T13:31:40.036Z,98266.75
2022-09-07T13:34:34.573Z,98262.94
2022-09-07T13:37:03.192Z,98250.41
2022-09-07T13:39:44.585Z,98241.75
2022-09-07T13:42:37.860Z,98232.94
2022-09-07T13:45:07.480Z,98241.09
2022-09-07T13:48:06.395Z,98239.88
2022-09-07T13:51:06.010Z,98243.06
2022-09-07T13:53:48.365Z,98250.38
2022-09-07T13:56:33.303Z,98245.59
2022-09-07T13:59:10.854Z,98255.53
2022-09-07T14:01:45.309Z,98248.34
2022-09-07T14:04:22.677Z,98246.81
2022-09-07T14:06:49.169Z,98248.34
2022-09-07T14:09:18.634Z,98242.94
2022-09-07T14:11:46.384Z,98244.19
2022-09-07T14:14:22.068Z,98239.63
2022-09-07T14:16:59.124Z,98229.56
2022-09-07T14:19:51.957Z,98223.88
2022-09-07T14:22:41.947Z,98230.13
2022-09-07T14:25:17.857Z,98226.25
2022-09-07T14:27:46.953Z,98225.16
2022-09-07T14:30:33.286Z,98223.47
2022-09-07T14:33:55.854Z,98219.97
2022-09-07T14:36:47.984Z,98215.75
2022-09-07T14:39:18.995Z,98219.47
2022-09-07T14:41:46.520Z,98217.41
2022-09-07T14:44:45.381Z,98213.13
2022-09-07T14:47:29.250Z,98203.56
2022-09-07T14:49:58.215Z,98200.28
2022-09-07T14:52:38.016Z,98191.03
2022-09-07T14:55:32.478Z,98183.31
2022-09-07T14:58:14.058Z,98191.50
2022-09-07T15:00:41.219Z,98179.31
2022-09-07T15:03:34.455Z,98181.06
2022-09-07T15:06:06.299Z,98184.38
2022-09-07T15:08:47.535Z,98180.78
2022-09-07T15:11:39.527Z,98178.00
2022-09-07T15:14:19.666Z,98178.41
2022-09-07T15:19:50.365Z,98173.06
2022-09-07T15:22:19.940Z,98168.38
2022-09-07T15:24:47.584Z,98151.13
2022-09-07T15:27:26.716Z,98155.28
2022-09-07T15:29:53.300Z,98155.66
2022-09-07T15:32:20.070Z,98161.34
2022-09-07T15:34:46.951Z,98159.88
2022-09-07T15:40:01.861Z,98147.38
2022-09-07T15:45:16.062Z,98153.53
2022-09-07T15:47:52.176Z,98151.00
2022-09-07T15:50:19.486Z,98147.88
2022-09-07T15:52:46.550Z,98147.53
2022-09-07T15:55:13.550Z,98145.19
2022-09-07T15:58:10.666Z,98144.63
2022-09-07T16:00:27.050Z,98144.53
2022-09-07T16:03:09.419Z,98150.44
2022-09-07T16:05:40.271Z,98144.69
2022-09-07T16:10:55.553Z,98132.09
2022-09-07T16:13:26.667Z,98139.81
2022-09-07T16:15:53.313Z,98145.00
2022-09-07T16:18:20.376Z,98134.97
2022-09-07T16:20:47.325Z,98128.75
2022-09-07T16:23:16.393Z,98129.84
2022-09-07T16:25:58.671Z,98133.19
2022-09-07T16:28:26.712Z,98135.41
2022-09-07T16:30:56.618Z,98128.25
2022-09-07T16:33:31.234Z,98134.63
2022-09-07T16:36:07.496Z,98128.53
2022-09-07T16:38:45.533Z,98133.72
2022-09-07T16:41:26.538Z,98135.81
2022-09-07T16:43:54.634Z,98131.28
2022-09-07T16:46:23.424Z,98133.66
2022-09-07T16:48:56.279Z,98132.41
2022-09-07T16:51:25.428Z,98129.84
2022-09-07T16:53:54.280Z,98120.50
2022-09-07T16:56:23.554Z,98119.19
2022-09-07T16:58:56.464Z,98115.41
2022-09-07T17:01:28.961Z,98115.41
2022-09-07T17:03:58.419Z,98109.25
2022-09-07T17:06:29.675Z,98112.75
2022-09-07T17:08:58.308Z,98106.09
2022-09-07T17:11:30.974Z,98109.81
2022-09-07T17:13:59.044Z,98111.09
2022-09-07T17:16:34.824Z,98108.66
2022-09-07T17:21:57.986Z,98115.47
2022-09-07T17:24:24.576Z,98117.63
2022-09-07T17:26:51.024Z,98113.47
2022-09-07T17:29:17.610Z,98111.34
2022-09-07T17:34:36.656Z,98106.59
2022-09-07T17:37:03.256Z,98101.66
2022-09-07T17:39:31.478Z,98103.75
2022-09-07T17:42:01.268Z,98109.59
2022-09-07T17:44:35.433Z,98109.16
2022-09-07T17:47:05.109Z,98103.78
2022-09-07T17:49:34.828Z,98109.94
2022-09-07T17:52:01.758Z,98109.19
2022-09-07T17:54:30.957Z,98104.69
2022-09-07T17:56:57.537Z,98113.50
2022-09-07T18:02:15.826Z,98124.88
2022-09-07T18:04:42.961Z,98133.50
2022-09-07T18:07:17.619Z,98129.44
2022-09-07T18:09:44.561Z,98132.59
2022-09-07T18:12:11.308Z,98132.31
2022-09-07T18:14:38.018Z,98132.50
2022-09-07T18:17:05.386Z,98142.84
2022-09-07T18:19:32.142Z,98142.53
2022-09-07T18:21:59.074Z,98153.06
2022-09-07T18:24:41.700Z,98153.97
2022-09-07T18:27:10.394Z,98164.81
2022-09-07T18:29:37.779Z,98156.66
2022-09-07T18:32:08.647Z,98163.53
2022-09-07T18:34:36.496Z,98160.09
2022-09-07T18:37:03.079Z,98167.00
2022-09-07T18:39:33.480Z,98157.13
2022-09-07T18:42:00.133Z,98155.41
2022-09-07T18:47:23.303Z,98155.09
2022-09-07T18:49:54.896Z,98157.72
2022-09-07T18:55:09.994Z,98164.31
2022-09-07T18:57:43.312Z,98162.72
2022-09-07T19:00:12.587Z,98166.78
2022-09-07T19:02:42.421Z,98167.56
2022-09-07T19:07:59.520Z,98174.75
2022-09-07T19:10:26.023Z,98169.56
2022-09-07T19:12:52.536Z,98170.84
2022-09-07T19:15:20.510Z,98168.94
2022-09-07T19:17:47.034Z,98168.66
2022-09-07T19:20:13.668Z,98165.63
2022-09-07T19:22:42.725Z,98172.47
2022-09-07T19:25:09.854Z,98164.97
2022-09-07T19:27:39.688Z,98164.63
2022-09-07T19:30:06.467Z,98154.59
2022-09-07T19:32:33.038Z,98150.38
2022-09-07T19:34:59.770Z,98154.09
2022-09-07T19:37:27.674Z,98156.88
2022-09-07T19:39:57.570Z,98151.84
2022-09-07T19:42:24.383Z,98151.53
2022-09-07T19:44:54.416Z,98156.69
2022-09-07T19:47:24.650Z,98158.38
2022-09-07T19:49:52.322Z,98163.28
2022-09-07T19:52:19.042Z,98158.84
2022-09-07T19:54:48.936Z,98150.25
2022-09-07T19:57:15.741Z,98149.44
2022-09-07T19:59:42.323Z,98145.97
2022-09-07T20:02:30.575Z,98146.53
2022-09-07T20:04:58.886Z,98146.81
2022-09-07T20:07:25.522Z,98148.69
2022-09-07T20:09:55.159Z,98149.00
2022-09-07T20:12:24.446Z,98147.75
2022-09-07T20:14:53.322Z,98151.59
2022-09-07T20:17:19.790Z,98148.16
2022-09-07T20:19:46.328Z,98152.06
2022-09-07T20:22:12.730Z,98139.63
2022-09-07T20:24:39.965Z,98140.13
2022-09-07T20:27:06.708Z,98135.59
2022-09-07T20:29:37.527Z,98141.50
2022-09-07T20:32:04.341Z,98144.59
2022-09-07T20:34:33.556Z,98139.28
2022-09-07T20:37:00.825Z,98146.41
2022-09-07T20:39:29.947Z,98142.34
2022-09-07T20:41:56.536Z,98140.44
2022-09-07T20:44:23.296Z,98135.84
2022-09-07T20:46:49.913Z,98134.78
2022-09-07T20:49:16.463Z,98126.03
2022-09-07T20:51:43.112Z,98128.78
2022-09-07T20:54:11.217Z,98134.31
2022-09-07T20:56:37.933Z,98133.13
2022-09-07T20:59:04.621Z,98138.38
2022-09-07T21:01:35.030Z,98133.97
2022-09-07T21:04:02.009Z,98131.63
2022-09-07T21:06:32.781Z,98138.50
2022-09-07T21:09:02.868Z,98135.56
2022-09-07T21:11:33.784Z,98135.38
2022-09-07T21:14:07.230Z,98120.25
2022-09-07T21:16:37.286Z,98121.84
2022-09-07T21:19:05.698Z,98115.16
2022-09-07T21:21:38.539Z,98105.53
2022-09-07T21:24:19.809Z,98107.88
2022-09-07T21:26:47.765Z,98115.84
2022-09-07T21:29:20.426Z,98106.91
2022-09-07T21:31:47.747Z,98101.69
2022-09-07T21:34:15.180Z,98101.81
2022-09-07T21:36:44.704Z,98108.00
2022-09-07T21:39:14.456Z,98108.38
2022-09-07T21:41:42.542Z,98092.38
2022-09-07T21:44:14.109Z,98086.69
2022-09-07T21:46:43.623Z,98095.13
2022-09-07T21:49:11.338Z,98091.78
2022-09-07T21:51:38.293Z,98089.56
2022-09-07T21:54:05.044Z,98094.84
2022-09-07T21:56:33.611Z,98088.84
2022-09-07T21:59:01.696Z,98085.91
2022-09-07T22:01:29.702Z,98084.16
2022-09-07T22:04:04.547Z,98095.34
2022-09-07T22:06:34.100Z,98093.31
2022-09-07T22:09:02.158Z,98099.16
2022-09-07T22:11:30.035Z,98091.53
2022-09-07T22:13:59.145Z,98088.09
2022-09-07T22:16:26.111Z,98095.53
2022-09-07T22:18:57.041Z,98098.97
2022-09-07T22:21:30.290Z,98105.72
2022-09-07T22:24:00.215Z,98112.91
2022-09-07T22:26:30.133Z,98124.69
2022-09-07T22:28:58.359Z,98125.06
2022-09-07T22:31:33.408Z,98111.34
2022-09-07T22:34:04.983Z,98103.38
2022-09-07T22:36:37.179Z,98102.28
2022-09-07T22:39:06.813Z,98100.44
2022-09-07T22:41:35.731Z,98103.28
2022-09-07T22:44:02.851Z,98094.06
2022-09-07T22:46:31.678Z,98082.88
2022-09-07T22:48:59.296Z,98067.47
2022-09-07T22:51:26.806Z,98065.41
2022-09-07T22:53:57.573Z,98058.22
2022-09-07T22:56:29.782Z,98050.59
2022-09-07T22:59:05.252Z,98046.09
2022-09-07T23:01:32.220Z,98053.84
2022-09-07T23:03:59.625Z,98043.84
2022-09-07T23:06:28.803Z,98052.94
2022-09-07T23:08:57.378Z,98045.50
2022-09-07T23:11:27.811Z,98042.25
2022-09-07T23:13:58.903Z,98032.44
2022-09-07T23:16:27.400Z,98031.38
2022-09-07T23:18:55.339Z,98024.38
2022-09-07T23:21:24.805Z,98022.06
2022-09-07T23:23:57.167Z,98029.22
2022-09-07T23:26:25.685Z,98030.78
2022-09-07T23:28:56.487Z,98029.59
2022-09-07T23:31:24.746Z,98029.31
2022-09-07T23:33:54.226Z,98019.00
2022-09-07T23:36:20.792Z,98023.03
2022-09-07T23:38:47.643Z,98016.16
2022-09-07T23:41:14.675Z,98013.59
2022-09-07T23:43:41.521Z,98010.19
2022-09-07T23:46:08.036Z,98005.75
2022-09-07T23:48:34.782Z,98012.53
2022-09-07T23:51:04.928Z,98013.63
2022-09-07T23:53:31.805Z,98003.53
2022-09-07T23:55:58.691Z,97999.28
2022-09-07T23:58:25.259Z,97996.34
